Terminal Aerodrome Forecast
Issued by NWS Shreveport, LA

Home | Current Version | Previous Version | Text Only | Print | Product List | Glossary On
Versions: 1 2 3 4 5 6 7 8 9 10 11 12 13 14 15 16 17 18 19
675
FTUS44 KSHV 290530
TAFMLU
TAF
KMLU 290530Z 2906/3006 23012KT P6SM -SHRA SCT020 BKN030
     FM290700 VRB05KT P6SM BKN110
      TEMPO 2912/2916 BKN025
     FM291600 VRB05KT P6SM VCSH BKN015
     FM291900 28004KT P6SM VCTS OVC050CB
     FM300200 22003KT P6SM BKN100=

USA.gov is the U.S. government's official web portal to all federal, state and local government web resources and services.